Emerald Coast — WDC9127 — position and weather

sailwx.info

Track history (hours):
 
Tides and Currents Weather Stations Pressure Air Temp Water Temp Dewpoint Dewpoint Depression Visibility Wind Speed Wind Dir Waves Ship Positions

Emerald Coast

Owner: Dann Marine Towing, LC, Chesapeake City, MD. More information available from US FCC via Universal Licensing System and Coast Guard Vessel Documentation Center.

Last reported at 2017-Feb-25 04:33 UTC. Time now 2017-Feb-25 05:28 UTC.
Position N 40°40' W 074°00'.

Length 28 m; draft 3 m.

Type: Towing. MMSI: 367097920.

Date/timePositionNaut miles runAvg speedWind from/ knotsBaromVisibWave heightAir tempDewpointWater temp
2017-Feb-25 04:33N 40°40' W 074°00'0 0.0
2017-Feb-25 03:33N 40°40' W 074°00'0 0.0
2017-Feb-25 02:33N 40°40' W 074°00'0 0.0
2017-Feb-25 01:33N 40°40' W 074°00'0 0.0
2017-Feb-25 00:33N 40°40' W 074°00'0 0.0
2017-Feb-24 23:33N 40°40' W 074°00'0 0.0
2017-Feb-24 22:33N 40°40' W 074°00'0 0.0
2017-Feb-24 21:33N 40°40' W 074°00'0 0.0
2017-Feb-24 20:33N 40°40' W 074°00'0 0.0
2017-Feb-24 19:33N 40°40' W 074°00'0 0.0
2017-Feb-24 18:33N 40°40' W 074°00'0 0.0
2017-Feb-24 17:33N 40°40' W 074°00'0 0.0
2017-Feb-24 16:33N 40°40' W 074°00'0 0.0
2017-Feb-24 15:34N 40°40' W 074°00'0 0.0
2017-Feb-24 14:33N 40°40' W 074°00'0 0.0
2017-Feb-24 13:33N 40°40' W 074°00'0 0.2
2017-Feb-24 12:33N 40°40' W 074°00'3 3.3
2017-Feb-24 11:33N 40°40' W 074°05'0 0.0
2017-Feb-24 10:33N 40°40' W 074°05'0 0.0
2017-Feb-24 09:33N 40°40' W 074°05'0 0.0
2017-Feb-24 08:33N 40°40' W 074°05'0 0.0
2017-Feb-24 07:33N 40°40' W 074°05'0 0.0
2017-Feb-24 06:33N 40°40' W 074°05'0 0.0
2017-Feb-24 05:33N 40°40' W 074°05'0 0.0
2017-Feb-24 04:33N 40°40' W 074°05'0 0.0
2017-Feb-24 03:33N 40°40' W 074°05'0 0.1
2017-Feb-24 02:33N 40°40' W 074°05'2 2.0
2017-Feb-24 01:33N 40°39' W 074°03'0 0.1
2017-Feb-24 00:33N 40°39' W 074°03'0 0.3
2017-Feb-23 23:33N 40°39' W 074°02'2 1.8
2017-Feb-23 22:33N 40°40' W 074°00'0 0.2
2017-Feb-23 21:34N 40°40' W 074°00'1 1.2
2017-Feb-23 20:33N 40°40' W 074°02'3 3.1
2017-Feb-23 19:33N 40°39' W 074°06'0 0.4
2017-Feb-23 18:33N 40°39' W 074°06'0 0.0
2017-Feb-23 17:33N 40°39' W 074°06'2 2.2
2017-Feb-23 16:33N 40°38' W 074°09'0 0.1
2017-Feb-23 15:32N 40°38' W 074°09'2 2.2
2017-Feb-23 14:33N 40°39' W 074°06'0 0.0
2017-Feb-23 13:33N 40°39' W 074°06'1 0.5
2017-Feb-23 12:33N 40°39' W 074°06'3 3.0
2017-Feb-23 11:33N 40°39' W 074°02'1 1.3
2017-Feb-23 10:33N 40°40' W 074°00'0 0.0
2017-Feb-23 09:33N 40°40' W 074°00'0 0.0
2017-Feb-23 08:33N 40°40' W 074°00'0 0.0
2017-Feb-23 07:33N 40°40' W 074°00'0 0.0
2017-Feb-23 06:33N 40°40' W 074°00'0 0.0
2017-Feb-23 05:33N 40°40' W 074°00'0 0.0
2017-Feb-23 04:33N 40°40' W 074°00'0 0.0
2017-Feb-23 03:33N 40°40' W 074°00'0 0.0
2017-Feb-23 02:33N 40°40' W 074°00'0 0.0
2017-Feb-23 01:33N 40°40' W 074°00'0 0.0
2017-Feb-23 00:33N 40°40' W 074°00'0 0.0
2017-Feb-22 23:33N 40°40' W 074°00'0 0.0
2017-Feb-22 22:33N 40°40' W 074°00'0 0.0
2017-Feb-22 21:33N 40°40' W 074°00'0 0.0
2017-Feb-22 20:33N 40°40' W 074°00'0 0.0
2017-Feb-22 19:33N 40°40' W 074°00'0 0.0
2017-Feb-22 18:33N 40°40' W 074°00'0 0.0
2017-Feb-22 17:33N 40°40' W 074°00'0 0.0
2017-Feb-22 16:33N 40°40' W 074°00'0 0.0
2017-Feb-22 15:33N 40°40' W 074°00'0 0.0
2017-Feb-22 14:33N 40°40' W 074°00'0 0.0
2017-Feb-22 13:33N 40°40' W 074°00'4 4.2
2017-Feb-22 12:33N 40°39' W 074°06'4 4.0
2017-Feb-22 11:33N 40°40' W 074°01'0 0.2
2017-Feb-22 10:33N 40°40' W 074°00'0 0.0
2017-Feb-22 09:33N 40°40' W 074°00'0 0.0
2017-Feb-22 08:33N 40°40' W 074°00'0 0.0
2017-Feb-22 07:33N 40°40' W 074°00'0 0.0
2017-Feb-22 06:33N 40°40' W 074°00'0 0.0
2017-Feb-22 05:33N 40°40' W 074°00'0 0.4
2017-Feb-22 04:33N 40°40' W 074°00'0 0.0
2017-Feb-22 03:34N 40°40' W 074°00'0 0.0
2017-Feb-22 02:33N 40°40' W 074°00'0 0.0
2017-Feb-22 01:33N 40°40' W 074°00'0 0.0
2017-Feb-22 00:33N 40°40' W 074°00'1 1.2
2017-Feb-21 23:33N 40°40' W 074°01'3 3.5
2017-Feb-21 22:33N 40°39' W 074°06'1 1.3
2017-Feb-21 21:33N 40°39' W 074°04'2 1.8
2017-Feb-21 20:33N 40°39' W 074°06'1 0.7
2017-Feb-21 19:33N 40°39' W 074°05'2 2.3
2017-Feb-21 18:33N 40°40' W 074°03'4 3.7
2017-Feb-21 17:33N 40°38' W 074°07'0 0.0
2017-Feb-21 16:33N 40°38' W 074°07'0 0.0
2017-Feb-21 15:33N 40°38' W 074°07'1 1.0
2017-Feb-21 14:33N 40°39' W 074°06'5 4.7
2017-Feb-21 13:33N 40°40' W 074°00'0 0.0
2017-Feb-21 12:33N 40°40' W 074°00'0 0.0
2017-Feb-21 11:34N 40°40' W 074°00'0 0.0
2017-Feb-21 10:33N 40°40' W 074°00'0 0.0
2017-Feb-21 09:33N 40°40' W 074°00'0 0.0
2017-Feb-21 08:33N 40°40' W 074°00'0 0.0
2017-Feb-21 07:34N 40°40' W 074°00'0 0.0
2017-Feb-21 06:33N 40°40' W 074°00'0 0.0
2017-Feb-21 05:33N 40°40' W 074°00'0 0.0
2017-Feb-21 04:33N 40°40' W 074°00'0 0.0
2017-Feb-21 03:33N 40°40' W 074°00'0 0.0
2017-Feb-21 02:34N 40°40' W 074°00'0 0.0
2017-Feb-21 01:33N 40°40' W 074°00'0 0.0
2017-Feb-21 00:33N 40°40' W 074°00'0 0.0
2017-Feb-20 23:33N 40°40' W 074°00'0 0.0
2017-Feb-20 22:33N 40°40' W 074°00'0 0.0
2017-Feb-20 21:33N 40°40' W 074°00'0 0.0
2017-Feb-20 20:33N 40°40' W 074°00'0 0.0
2017-Feb-20 19:33N 40°40' W 074°00'0 0.0
2017-Feb-20 18:33N 40°40' W 074°00'5 4.7
2017-Feb-20 17:33N 40°39' W 074°06'1 1.0
2017-Feb-20 16:33N 40°38' W 074°07'0 0.0
2017-Feb-20 15:33N 40°38' W 074°07'0 0.0
2017-Feb-20 14:33N 40°38' W 074°07'0 0.0
2017-Feb-20 13:33N 40°38' W 074°07'2 1.6
2017-Feb-20 12:33N 40°39' W 074°05'4 4.2
2017-Feb-20 11:33N 40°40' W 074°00'0 0.0
2017-Feb-20 10:33N 40°40' W 074°00'0 0.0
2017-Feb-20 09:33N 40°40' W 074°00'0 0.0
2017-Feb-20 08:33N 40°40' W 074°00'0 0.0
2017-Feb-20 07:33N 40°40' W 074°00'0 0.0
2017-Feb-20 06:33N 40°40' W 074°00'0 0.0
2017-Feb-20 05:34N 40°40' W 074°00'0 0.0
2017-Feb-20 04:33N 40°40' W 074°00'0 0.0
2017-Feb-20 03:33N 40°40' W 074°00'0 0.0
2017-Feb-20 02:33N 40°40' W 074°00'0 0.0
2017-Feb-20 01:33N 40°40' W 074°00'0 0.0
2017-Feb-20 00:33N 40°40' W 074°00'0 0.0
2017-Feb-19 23:33N 40°40' W 074°00'0 0.0
2017-Feb-19 22:33N 40°40' W 074°00'0 0.0
2017-Feb-19 21:33N 40°40' W 074°00'0 0.0
2017-Feb-19 20:33N 40°40' W 074°00'0 0.0
2017-Feb-19 19:34N 40°40' W 074°00'0 0.0
2017-Feb-19 18:33N 40°40' W 074°00'0 0.0
2017-Feb-19 17:33N 40°40' W 074°00'0 0.0
2017-Feb-19 16:33N 40°40' W 074°00'0 0.0
2017-Feb-19 15:33N 40°40' W 074°00'0 0.0
2017-Feb-19 14:33N 40°40' W 074°00'0 0.0
2017-Feb-19 13:33N 40°40' W 074°00'5 4.9
2017-Feb-19 12:33N 40°39' W 074°06'0 0.0
2017-Feb-19 11:33N 40°39' W 074°06'0 0.0
2017-Feb-19 10:33N 40°39' W 074°06'0 0.0
2017-Feb-19 09:33N 40°39' W 074°06'0 0.0
2017-Feb-19 08:33N 40°39' W 074°06'0 0.0
2017-Feb-19 07:33N 40°39' W 074°06'0 0.0
2017-Feb-19 06:33N 40°39' W 074°06'0 0.0
2017-Feb-19 05:33N 40°39' W 074°06'0 0.0
2017-Feb-19 04:31N 40°39' W 074°06'0 0.0
2017-Feb-19 03:33N 40°39' W 074°06'0 0.0
2017-Feb-19 02:33N 40°39' W 074°06'0 0.0
2017-Feb-19 01:33N 40°39' W 074°06'0 0.0
2017-Feb-19 00:33N 40°39' W 074°06'0 0.0
2017-Feb-18 23:33N 40°39' W 074°06'0 0.0
2017-Feb-18 22:33N 40°39' W 074°06'0 0.0
2017-Feb-18 21:31N 40°39' W 074°06'0 0.0
2017-Feb-18 20:26N 40°39' W 074°06'0 0.0
2017-Feb-18 19:33N 40°39' W 074°06'0 0.0
2017-Feb-18 18:34N 40°39' W 074°06'0 0.0
2017-Feb-18 17:33N 40°39' W 074°06'0 0.0
2017-Feb-18 16:33N 40°39' W 074°06'0 0.0
2017-Feb-18 15:33N 40°39' W 074°06'0 0.0
2017-Feb-18 14:33N 40°39' W 074°06'0 0.0
2017-Feb-18 13:33N 40°39' W 074°06'0 0.0
2017-Feb-18 12:33N 40°39' W 074°06'0 0.0
2017-Feb-18 11:33N 40°39' W 074°06'0 0.0
2017-Feb-18 10:33N 40°39' W 074°06'0 0.0
2017-Feb-18 09:33N 40°39' W 074°06'0 0.0
2017-Feb-18 08:34N 40°39' W 074°06'0 0.0
2017-Feb-18 07:33N 40°39' W 074°06'0 0.0
2017-Feb-18 06:33N 40°39' W 074°06'0 0.0
2017-Feb-18 05:33N 40°39' W 074°06'0 0.0
2017-Feb-18 04:33N 40°39' W 074°06'0 0.0
2017-Feb-18 03:33N 40°39' W 074°06'0 0.0
2017-Feb-18 02:33N 40°39' W 074°06'0 0.0
2017-Feb-18 01:33N 40°39' W 074°06'5 4.8
2017-Feb-18 00:33N 40°40' W 074°00'0 0.0
2017-Feb-17 23:34N 40°40' W 074°00'0 0.1
2017-Feb-17 22:33N 40°40' W 074°00'6 6.1
2017-Feb-17 21:33N 40°40' W 074°08'2 1.9
2017-Feb-17 20:33N 40°39' W 074°09'5 4.7
2017-Feb-17 19:34N 40°40' W 074°03'1 1.1
2017-Feb-17 18:33N 40°40' W 074°04'0 0.0
2017-Feb-17 17:33N 40°40' W 074°04'0 0.0
2017-Feb-17 16:33N 40°40' W 074°05'0 0.0
2017-Feb-17 15:33N 40°40' W 074°05'0 0.0
2017-Feb-17 14:33N 40°40' W 074°04'0 0.0
2017-Feb-17 13:33N 40°40' W 074°04'0 0.0
2017-Feb-17 12:33N 40°40' W 074°04'0 0.0
2017-Feb-17 11:33N 40°40' W 074°04'0 0.0
2017-Feb-17 10:33N 40°40' W 074°04'0 0.0
2017-Feb-17 09:33N 40°40' W 074°05'0 0.0
2017-Feb-17 08:33N 40°40' W 074°05'0 0.0
2017-Feb-17 07:33N 40°40' W 074°04'0 0.0
2017-Feb-17 06:33N 40°40' W 074°05'0 0.0
2017-Feb-17 05:33N 40°40' W 074°04'0 0.0
2017-Feb-17 04:33N 40°40' W 074°04'0 0.0
2017-Feb-17 03:33N 40°40' W 074°05'0 0.0
2017-Feb-17 02:33N 40°40' W 074°04'0 0.3
2017-Feb-17 01:34N 40°40' W 074°04'4 3.7
2017-Feb-17 00:33N 40°40' W 074°09'0 0.0
2017-Feb-16 23:33N 40°40' W 074°09'0 0.0
2017-Feb-16 22:33N 40°40' W 074°09'0 0.0
2017-Feb-16 21:33N 40°40' W 074°09'1 1.2
2017-Feb-16 20:33N 40°41' W 074°09'2 2.2
2017-Feb-16 19:33N 40°39' W 074°09'3 2.8
2017-Feb-16 18:33N 40°39' W 074°05'1 1.0
2017-Feb-16 17:33N 40°40' W 074°04'0 0.4
2017-Feb-16 16:33N 40°40' W 074°04'0 0.0
2017-Feb-16 15:33N 40°40' W 074°04'0 0.0
2017-Feb-16 14:33N 40°40' W 074°04'0 0.0
2017-Feb-16 13:33N 40°40' W 074°04'0 0.0
2017-Feb-16 12:33N 40°40' W 074°05'0 0.0
2017-Feb-16 11:33N 40°40' W 074°05'1 1.5
2017-Feb-16 10:33N 40°39' W 074°06'4 4.0
2017-Feb-16 09:33N 40°40' W 074°01'0 0.2
2017-Feb-16 08:33N 40°40' W 074°00'0 0.0
2017-Feb-16 07:33N 40°40' W 074°00'0 0.0
2017-Feb-16 06:33N 40°40' W 074°00'0 0.0
2017-Feb-16 05:33N 40°40' W 074°00'0 0.0
2017-Feb-16 04:33N 40°40' W 074°00'0 0.0
2017-Feb-16 03:33N 40°40' W 074°00'0 0.0
2017-Feb-16 02:33N 40°40' W 074°00'0 0.0
2017-Feb-16 01:33N 40°40' W 074°00'0 0.0
2017-Feb-16 00:33N 40°40' W 074°00'2 1.9
2017-Feb-15 23:33N 40°40' W 074°03'2 2.1
2017-Feb-15 22:33N 40°38' W 074°04'0 0.0
2017-Feb-15 21:33N 40°38' W 074°04'0 0.1
2017-Feb-15 20:33N 40°38' W 074°04'0 0.0
2017-Feb-15 19:33N 40°38' W 074°04'0 0.1
2017-Feb-15 18:33N 40°38' W 074°04'0 0.3
2017-Feb-15 17:33N 40°38' W 074°04'0 0.0
2017-Feb-15 16:33N 40°38' W 074°04'2 1.8
2017-Feb-15 15:33N 40°40' W 074°04'0 0.0
2017-Feb-15 14:33N 40°40' W 074°04'0 0.0
2017-Feb-15 13:33N 40°40' W 074°04'0 0.0
2017-Feb-15 12:33N 40°40' W 074°04'0 0.0
2017-Feb-15 11:33N 40°40' W 074°04'0 0.0
2017-Feb-15 10:33N 40°40' W 074°04'0 0.0
2017-Feb-15 09:33N 40°40' W 074°04'0 0.0
2017-Feb-15 08:33N 40°40' W 074°04'0 0.0
2017-Feb-15 07:33N 40°40' W 074°04'0 0.0
2017-Feb-15 06:34N 40°40' W 074°04'0 0.0
2017-Feb-15 05:33N 40°40' W 074°04'0 0.0
2017-Feb-15 04:33N 40°40' W 074°04'  
Track history (hours):
 
Tides and Currents Weather Stations Pressure Air Temp Water Temp Dewpoint Dewpoint Depression Visibility Wind Speed Wind Dir Waves Ship Positions

Emerald Coast

Owner: Dann Marine Towing, LC, Chesapeake City, MD. More information available from US FCC via Universal Licensing System and Coast Guard Vessel Documentation Center.

Last reported at 2017-Feb-25 04:33 UTC. Time now 2017-Feb-25 05:28 UTC.
Position N 40°40' W 074°00'.

Length 28 m; draft 3 m.

Type: Towing. MMSI: 367097920.

Date/timePositionNaut miles runAvg speedWind from/ knotsBaromVisibWave heightAir tempDewpointWater temp
2017-Feb-25 04:33N 40°40' W 074°00'0 0.0
2017-Feb-25 03:33N 40°40' W 074°00'0 0.0
2017-Feb-25 02:33N 40°40' W 074°00'0 0.0
2017-Feb-25 01:33N 40°40' W 074°00'0 0.0
2017-Feb-25 00:33N 40°40' W 074°00'0 0.0
2017-Feb-24 23:33N 40°40' W 074°00'0 0.0
2017-Feb-24 22:33N 40°40' W 074°00'0 0.0
2017-Feb-24 21:33N 40°40' W 074°00'0 0.0
2017-Feb-24 20:33N 40°40' W 074°00'0 0.0
2017-Feb-24 19:33N 40°40' W 074°00'0 0.0
2017-Feb-24 18:33N 40°40' W 074°00'0 0.0
2017-Feb-24 17:33N 40°40' W 074°00'0 0.0
2017-Feb-24 16:33N 40°40' W 074°00'0 0.0
2017-Feb-24 15:34N 40°40' W 074°00'0 0.0
2017-Feb-24 14:33N 40°40' W 074°00'0 0.0
2017-Feb-24 13:33N 40°40' W 074°00'0 0.2
2017-Feb-24 12:33N 40°40' W 074°00'3 3.3
2017-Feb-24 11:33N 40°40' W 074°05'0 0.0
2017-Feb-24 10:33N 40°40' W 074°05'0 0.0
2017-Feb-24 09:33N 40°40' W 074°05'0 0.0
2017-Feb-24 08:33N 40°40' W 074°05'0 0.0
2017-Feb-24 07:33N 40°40' W 074°05'0 0.0
2017-Feb-24 06:33N 40°40' W 074°05'0 0.0
2017-Feb-24 05:33N 40°40' W 074°05'0 0.0
2017-Feb-24 04:33N 40°40' W 074°05'0 0.0
2017-Feb-24 03:33N 40°40' W 074°05'0 0.1
2017-Feb-24 02:33N 40°40' W 074°05'2 2.0
2017-Feb-24 01:33N 40°39' W 074°03'0 0.1
2017-Feb-24 00:33N 40°39' W 074°03'0 0.3
2017-Feb-23 23:33N 40°39' W 074°02'2 1.8
2017-Feb-23 22:33N 40°40' W 074°00'0 0.2
2017-Feb-23 21:34N 40°40' W 074°00'1 1.2
2017-Feb-23 20:33N 40°40' W 074°02'3 3.1
2017-Feb-23 19:33N 40°39' W 074°06'0 0.4
2017-Feb-23 18:33N 40°39' W 074°06'0 0.0
2017-Feb-23 17:33N 40°39' W 074°06'2 2.2
2017-Feb-23 16:33N 40°38' W 074°09'0 0.1
2017-Feb-23 15:32N 40°38' W 074°09'2 2.2
2017-Feb-23 14:33N 40°39' W 074°06'0 0.0
2017-Feb-23 13:33N 40°39' W 074°06'1 0.5
2017-Feb-23 12:33N 40°39' W 074°06'3 3.0
2017-Feb-23 11:33N 40°39' W 074°02'1 1.3
2017-Feb-23 10:33N 40°40' W 074°00'0 0.0
2017-Feb-23 09:33N 40°40' W 074°00'0 0.0
2017-Feb-23 08:33N 40°40' W 074°00'0 0.0
2017-Feb-23 07:33N 40°40' W 074°00'0 0.0
2017-Feb-23 06:33N 40°40' W 074°00'0 0.0
2017-Feb-23 05:33N 40°40' W 074°00'0 0.0
2017-Feb-23 04:33N 40°40' W 074°00'0 0.0
2017-Feb-23 03:33N 40°40' W 074°00'0 0.0
2017-Feb-23 02:33N 40°40' W 074°00'0 0.0
2017-Feb-23 01:33N 40°40' W 074°00'0 0.0
2017-Feb-23 00:33N 40°40' W 074°00'0 0.0
2017-Feb-22 23:33N 40°40' W 074°00'0 0.0
2017-Feb-22 22:33N 40°40' W 074°00'0 0.0
2017-Feb-22 21:33N 40°40' W 074°00'0 0.0
2017-Feb-22 20:33N 40°40' W 074°00'0 0.0
2017-Feb-22 19:33N 40°40' W 074°00'0 0.0
2017-Feb-22 18:33N 40°40' W 074°00'0 0.0
2017-Feb-22 17:33N 40°40' W 074°00'0 0.0
2017-Feb-22 16:33N 40°40' W 074°00'0 0.0
2017-Feb-22 15:33N 40°40' W 074°00'0 0.0
2017-Feb-22 14:33N 40°40' W 074°00'0 0.0
2017-Feb-22 13:33N 40°40' W 074°00'4 4.2
2017-Feb-22 12:33N 40°39' W 074°06'4 4.0
2017-Feb-22 11:33N 40°40' W 074°01'0 0.2
2017-Feb-22 10:33N 40°40' W 074°00'0 0.0
2017-Feb-22 09:33N 40°40' W 074°00'0 0.0
2017-Feb-22 08:33N 40°40' W 074°00'0 0.0
2017-Feb-22 07:33N 40°40' W 074°00'0 0.0
2017-Feb-22 06:33N 40°40' W 074°00'0 0.0
2017-Feb-22 05:33N 40°40' W 074°00'0 0.4
2017-Feb-22 04:33N 40°40' W 074°00'0 0.0
2017-Feb-22 03:34N 40°40' W 074°00'0 0.0
2017-Feb-22 02:33N 40°40' W 074°00'0 0.0
2017-Feb-22 01:33N 40°40' W 074°00'0 0.0
2017-Feb-22 00:33N 40°40' W 074°00'1 1.2
2017-Feb-21 23:33N 40°40' W 074°01'3 3.5
2017-Feb-21 22:33N 40°39' W 074°06'1 1.3
2017-Feb-21 21:33N 40°39' W 074°04'2 1.8
2017-Feb-21 20:33N 40°39' W 074°06'1 0.7
2017-Feb-21 19:33N 40°39' W 074°05'2 2.3
2017-Feb-21 18:33N 40°40' W 074°03'4 3.7
2017-Feb-21 17:33N 40°38' W 074°07'0 0.0
2017-Feb-21 16:33N 40°38' W 074°07'0 0.0
2017-Feb-21 15:33N 40°38' W 074°07'1 1.0
2017-Feb-21 14:33N 40°39' W 074°06'5 4.7
2017-Feb-21 13:33N 40°40' W 074°00'0 0.0
2017-Feb-21 12:33N 40°40' W 074°00'0 0.0
2017-Feb-21 11:34N 40°40' W 074°00'0 0.0
2017-Feb-21 10:33N 40°40' W 074°00'0 0.0
2017-Feb-21 09:33N 40°40' W 074°00'0 0.0
2017-Feb-21 08:33N 40°40' W 074°00'0 0.0
2017-Feb-21 07:34N 40°40' W 074°00'0 0.0
2017-Feb-21 06:33N 40°40' W 074°00'0 0.0
2017-Feb-21 05:33N 40°40' W 074°00'0 0.0
2017-Feb-21 04:33N 40°40' W 074°00'0 0.0
2017-Feb-21 03:33N 40°40' W 074°00'0 0.0
2017-Feb-21 02:34N 40°40' W 074°00'0 0.0
2017-Feb-21 01:33N 40°40' W 074°00'0 0.0
2017-Feb-21 00:33N 40°40' W 074°00'0 0.0
2017-Feb-20 23:33N 40°40' W 074°00'0 0.0
2017-Feb-20 22:33N 40°40' W 074°00'0 0.0
2017-Feb-20 21:33N 40°40' W 074°00'0 0.0
2017-Feb-20 20:33N 40°40' W 074°00'0 0.0
2017-Feb-20 19:33N 40°40' W 074°00'0 0.0
2017-Feb-20 18:33N 40°40' W 074°00'5 4.7
2017-Feb-20 17:33N 40°39' W 074°06'1 1.0
2017-Feb-20 16:33N 40°38' W 074°07'0 0.0
2017-Feb-20 15:33N 40°38' W 074°07'0 0.0
2017-Feb-20 14:33N 40°38' W 074°07'0 0.0
2017-Feb-20 13:33N 40°38' W 074°07'2 1.6
2017-Feb-20 12:33N 40°39' W 074°05'4 4.2
2017-Feb-20 11:33N 40°40' W 074°00'0 0.0
2017-Feb-20 10:33N 40°40' W 074°00'0 0.0
2017-Feb-20 09:33N 40°40' W 074°00'0 0.0
2017-Feb-20 08:33N 40°40' W 074°00'0 0.0
2017-Feb-20 07:33N 40°40' W 074°00'0 0.0
2017-Feb-20 06:33N 40°40' W 074°00'0 0.0
2017-Feb-20 05:34N 40°40' W 074°00'0 0.0
2017-Feb-20 04:33N 40°40' W 074°00'0 0.0
2017-Feb-20 03:33N 40°40' W 074°00'0 0.0
2017-Feb-20 02:33N 40°40' W 074°00'0 0.0
2017-Feb-20 01:33N 40°40' W 074°00'0 0.0
2017-Feb-20 00:33N 40°40' W 074°00'0 0.0
2017-Feb-19 23:33N 40°40' W 074°00'0 0.0
2017-Feb-19 22:33N 40°40' W 074°00'0 0.0
2017-Feb-19 21:33N 40°40' W 074°00'0 0.0
2017-Feb-19 20:33N 40°40' W 074°00'0 0.0
2017-Feb-19 19:34N 40°40' W 074°00'0 0.0
2017-Feb-19 18:33N 40°40' W 074°00'0 0.0
2017-Feb-19 17:33N 40°40' W 074°00'0 0.0
2017-Feb-19 16:33N 40°40' W 074°00'0 0.0
2017-Feb-19 15:33N 40°40' W 074°00'0 0.0
2017-Feb-19 14:33N 40°40' W 074°00'0 0.0
2017-Feb-19 13:33N 40°40' W 074°00'5 4.9
2017-Feb-19 12:33N 40°39' W 074°06'0 0.0
2017-Feb-19 11:33N 40°39' W 074°06'0 0.0
2017-Feb-19 10:33N 40°39' W 074°06'0 0.0
2017-Feb-19 09:33N 40°39' W 074°06'0 0.0
2017-Feb-19 08:33N 40°39' W 074°06'0 0.0
2017-Feb-19 07:33N 40°39' W 074°06'0 0.0
2017-Feb-19 06:33N 40°39' W 074°06'0 0.0
2017-Feb-19 05:33N 40°39' W 074°06'0 0.0
2017-Feb-19 04:31N 40°39' W 074°06'0 0.0
2017-Feb-19 03:33N 40°39' W 074°06'0 0.0
2017-Feb-19 02:33N 40°39' W 074°06'0 0.0
2017-Feb-19 01:33N 40°39' W 074°06'0 0.0
2017-Feb-19 00:33N 40°39' W 074°06'0 0.0
2017-Feb-18 23:33N 40°39' W 074°06'0 0.0
2017-Feb-18 22:33N 40°39' W 074°06'0 0.0
2017-Feb-18 21:31N 40°39' W 074°06'0 0.0
2017-Feb-18 20:26N 40°39' W 074°06'0 0.0
2017-Feb-18 19:33N 40°39' W 074°06'0 0.0
2017-Feb-18 18:34N 40°39' W 074°06'0 0.0
2017-Feb-18 17:33N 40°39' W 074°06'0 0.0
2017-Feb-18 16:33N 40°39' W 074°06'0 0.0
2017-Feb-18 15:33N 40°39' W 074°06'0 0.0
2017-Feb-18 14:33N 40°39' W 074°06'0 0.0
2017-Feb-18 13:33N 40°39' W 074°06'0 0.0
2017-Feb-18 12:33N 40°39' W 074°06'0 0.0
2017-Feb-18 11:33N 40°39' W 074°06'0 0.0
2017-Feb-18 10:33N 40°39' W 074°06'0 0.0
2017-Feb-18 09:33N 40°39' W 074°06'0 0.0
2017-Feb-18 08:34N 40°39' W 074°06'0 0.0
2017-Feb-18 07:33N 40°39' W 074°06'0 0.0
2017-Feb-18 06:33N 40°39' W 074°06'0 0.0
2017-Feb-18 05:33N 40°39' W 074°06'0 0.0
2017-Feb-18 04:33N 40°39' W 074°06'0 0.0
2017-Feb-18 03:33N 40°39' W 074°06'0 0.0
2017-Feb-18 02:33N 40°39' W 074°06'0 0.0
2017-Feb-18 01:33N 40°39' W 074°06'5 4.8
2017-Feb-18 00:33N 40°40' W 074°00'0 0.0
2017-Feb-17 23:34N 40°40' W 074°00'0 0.1
2017-Feb-17 22:33N 40°40' W 074°00'6 6.1
2017-Feb-17 21:33N 40°40' W 074°08'2 1.9
2017-Feb-17 20:33N 40°39' W 074°09'5 4.7
2017-Feb-17 19:34N 40°40' W 074°03'1 1.1
2017-Feb-17 18:33N 40°40' W 074°04'0 0.0
2017-Feb-17 17:33N 40°40' W 074°04'0 0.0
2017-Feb-17 16:33N 40°40' W 074°05'0 0.0
2017-Feb-17 15:33N 40°40' W 074°05'0 0.0
2017-Feb-17 14:33N 40°40' W 074°04'0 0.0
2017-Feb-17 13:33N 40°40' W 074°04'0 0.0
2017-Feb-17 12:33N 40°40' W 074°04'0 0.0
2017-Feb-17 11:33N 40°40' W 074°04'0 0.0
2017-Feb-17 10:33N 40°40' W 074°04'0 0.0
2017-Feb-17 09:33N 40°40' W 074°05'0 0.0
2017-Feb-17 08:33N 40°40' W 074°05'0 0.0
2017-Feb-17 07:33N 40°40' W 074°04'0 0.0
2017-Feb-17 06:33N 40°40' W 074°05'0 0.0
2017-Feb-17 05:33N 40°40' W 074°04'0 0.0
2017-Feb-17 04:33N 40°40' W 074°04'0 0.0
2017-Feb-17 03:33N 40°40' W 074°05'0 0.0
2017-Feb-17 02:33N 40°40' W 074°04'0 0.3
2017-Feb-17 01:34N 40°40' W 074°04'4 3.7
2017-Feb-17 00:33N 40°40' W 074°09'0 0.0
2017-Feb-16 23:33N 40°40' W 074°09'0 0.0
2017-Feb-16 22:33N 40°40' W 074°09'0 0.0
2017-Feb-16 21:33N 40°40' W 074°09'1 1.2
2017-Feb-16 20:33N 40°41' W 074°09'2 2.2
2017-Feb-16 19:33N 40°39' W 074°09'3 2.8
2017-Feb-16 18:33N 40°39' W 074°05'1 1.0
2017-Feb-16 17:33N 40°40' W 074°04'0 0.4
2017-Feb-16 16:33N 40°40' W 074°04'0 0.0
2017-Feb-16 15:33N 40°40' W 074°04'0 0.0
2017-Feb-16 14:33N 40°40' W 074°04'0 0.0
2017-Feb-16 13:33N 40°40' W 074°04'0 0.0
2017-Feb-16 12:33N 40°40' W 074°05'0 0.0
2017-Feb-16 11:33N 40°40' W 074°05'1 1.5
2017-Feb-16 10:33N 40°39' W 074°06'4 4.0
2017-Feb-16 09:33N 40°40' W 074°01'0 0.2
2017-Feb-16 08:33N 40°40' W 074°00'0 0.0
2017-Feb-16 07:33N 40°40' W 074°00'0 0.0
2017-Feb-16 06:33N 40°40' W 074°00'0 0.0
2017-Feb-16 05:33N 40°40' W 074°00'0 0.0
2017-Feb-16 04:33N 40°40' W 074°00'0 0.0
2017-Feb-16 03:33N 40°40' W 074°00'0 0.0
2017-Feb-16 02:33N 40°40' W 074°00'0 0.0
2017-Feb-16 01:33N 40°40' W 074°00'0 0.0
2017-Feb-16 00:33N 40°40' W 074°00'2 1.9
2017-Feb-15 23:33N 40°40' W 074°03'2 2.1
2017-Feb-15 22:33N 40°38' W 074°04'0 0.0
2017-Feb-15 21:33N 40°38' W 074°04'0 0.1
2017-Feb-15 20:33N 40°38' W 074°04'0 0.0
2017-Feb-15 19:33N 40°38' W 074°04'0 0.1
2017-Feb-15 18:33N 40°38' W 074°04'0 0.3
2017-Feb-15 17:33N 40°38' W 074°04'0 0.0
2017-Feb-15 16:33N 40°38' W 074°04'2 1.8
2017-Feb-15 15:33N 40°40' W 074°04'0 0.0
2017-Feb-15 14:33N 40°40' W 074°04'0 0.0
2017-Feb-15 13:33N 40°40' W 074°04'0 0.0
2017-Feb-15 12:33N 40°40' W 074°04'0 0.0
2017-Feb-15 11:33N 40°40' W 074°04'0 0.0
2017-Feb-15 10:33N 40°40' W 074°04'0 0.0
2017-Feb-15 09:33N 40°40' W 074°04'0 0.0
2017-Feb-15 08:33N 40°40' W 074°04'0 0.0
2017-Feb-15 07:33N 40°40' W 074°04'0 0.0
2017-Feb-15 06:34N 40°40' W 074°04'0 0.0
2017-Feb-15 05:33N 40°40' W 074°04'0 0.0
2017-Feb-15 04:33N 40°40' W 074°04'  

Dump ship's entire track history